Time;durP1;ratioP1;P1;durP2;ratioP2;P2;SDS_P1;SDS_P2;PMS_P1;PMS_P2;Temp;Humidity;BMP_temperature;BMP_pressure;BME280_temperature;BME280_humidity;BME280_pressure;Samples;Min_cycle;Max_cycle;Signal;HPM_P1;HPM_P2
2021/08/04 00:00:15;;;;;;;4.50;2.55;;;;;;;;;;5053833;28;20049;-85
2021/08/04 00:02:42;;;;;;;4.20;2.03;;;;;;;;;;5050537;28;20029;-85
2021/08/04 00:05:11;;;;;;;3.47;1.98;;;;;;;;;;5049485;28;20180;-85
2021/08/04 00:07:40;;;;;;;4.10;2.22;;;;;;;;;;5050817;28;20072;-85
2021/08/04 00:10:07;;;;;;;3.90;2.10;;;;;;;;;;5050839;28;20049;-85
2021/08/04 00:12:35;;;;;;;4.32;2.17;;;;;;;;;;5049997;28;20057;-85
2021/08/04 00:15:02;;;;;;;4.32;2.38;;;;;;;;;;5049825;28;20049;-85
2021/08/04 00:17:32;;;;;;;4.65;2.67;;;;;;;;;;5049413;28;20072;-86
2021/08/04 00:19:59;;;;;;;4.82;2.60;;;;;;;;;;5048502;28;20057;-85
2021/08/04 00:22:25;;;;;;;4.22;2.47;;;;;;;;;;5047210;28;20053;-85
2021/08/04 00:24:56;;;;;;;6.82;2.40;;;;;;;;;;5055391;28;20072;-85
2021/08/04 00:27:24;;;;;;;5.63;2.45;;;;;;;;;;5056719;28;20061;-84
2021/08/04 00:29:50;;;;;;;4.18;2.67;;;;;;;;;;5059725;28;20071;-84
2021/08/04 00:32:17;;;;;;;3.88;2.20;;;;;;;;;;5059393;28;20045;-84
2021/08/04 00:34:44;;;;;;;4.57;2.60;;;;;;;;;;5057629;28;20061;-84
2021/08/04 00:37:11;;;;;;;4.55;2.20;;;;;;;;;;5054621;28;20053;-83
2021/08/04 00:39:38;;;;;;;5.13;2.70;;;;;;;;;;5052456;28;20056;-85
2021/08/04 00:42:08;;;;;;;4.72;2.10;;;;;;;;;;5047796;28;20056;-84
2021/08/04 00:44:35;;;;;;;4.70;2.28;;;;;;;;;;5041656;28;20057;-86
2021/08/04 00:47:04;;;;;;;3.67;2.53;;;;;;;;;;5041310;28;20392;-85
2021/08/04 00:49:32;;;;;;;5.47;1.90;;;;;;;;;;5042416;28;20423;-86
2021/08/04 00:51:59;;;;;;;4.10;2.22;;;;;;;;;;5057432;28;20052;-84
2021/08/04 00:54:26;;;;;;;4.53;1.90;;;;;;;;;;5057614;28;20037;-85
2021/08/04 00:56:53;;;;;;;4.95;2.42;;;;;;;;;;5041942;28;20099;-85
2021/08/04 00:59:22;;;;;;;5.70;2.28;;;;;;;;;;5042465;28;20045;-85
2021/08/04 01:01:52;;;;;;;4.75;2.50;;;;;;;;;;5038359;28;20099;-84
2021/08/04 01:04:21;;;;;;;;;;;;;;;;;;5038402;28;20458;-84
2021/08/04 01:07:00;;;;;;;4.15;2.10;;;;;;;;;;5036238;28;19920;-84
2021/08/04 01:09:34;;;;;;;4.65;2.40;;;;;;;;;;5039283;28;20049;-84
2021/08/04 01:12:05;;;;;;;4.45;2.00;;;;;;;;;;5039311;28;20099;-84
2021/08/04 01:14:37;;;;;;;4.68;2.47;;;;;;;;;;5039453;28;20112;-87
2021/08/04 01:17:05;;;;;;;5.32;2.70;;;;;;;;;;5039654;28;20454;-84
2021/08/04 01:19:45;;;;;;;4.20;2.17;;;;;;;;;;5039418;28;20049;-84
2021/08/04 01:22:22;;;;;;;5.38;2.42;;;;;;;;;;5045664;28;20050;-85
2021/08/04 01:24:57;;;;;;;4.28;2.30;;;;;;;;;;5045496;28;20469;-86
2021/08/04 01:27:27;;;;;;;4.45;2.25;;;;;;;;;;5040763;28;20049;-85
2021/08/04 01:29:56;;;;;;;5.38;2.53;;;;;;;;;;5034985;28;20053;-84
2021/08/04 01:32:23;;;;;;;4.70;2.53;;;;;;;;;;5035772;28;20054;-84
2021/08/04 01:34:54;;;;;;;5.15;2.67;;;;;;;;;;5034362;28;20057;-85
2021/08/04 01:37:23;;;;;;;5.35;2.65;;;;;;;;;;5042343;28;20046;-85
2021/08/04 01:39:51;;;;;;;5.22;2.80;;;;;;;;;;5045808;28;20149;-84
2021/08/04 01:42:19;;;;;;;8.02;3.10;;;;;;;;;;5040720;28;20053;-85
2021/08/04 01:44:56;;;;;;;5.47;2.42;;;;;;;;;;5039494;28;20072;-83
2021/08/04 01:47:24;;;;;;;6.32;3.03;;;;;;;;;;5040676;28;20053;-85
2021/08/04 01:49:51;;;;;;;5.75;2.58;;;;;;;;;;5040569;28;20072;-85
2021/08/04 01:52:18;;;;;;;4.40;2.38;;;;;;;;;;5041566;28;20072;-85
2021/08/04 01:54:49;;;;;;;5.55;2.90;;;;;;;;;;5040172;28;20042;-85
2021/08/04 01:57:15;;;;;;;4.63;2.45;;;;;;;;;;5040365;28;20057;-85
2021/08/04 01:59:44;;;;;;;5.25;2.58;;;;;;;;;;5040233;28;20104;-85
2021/08/04 02:02:17;;;;;;;4.45;2.78;;;;;;;;;;5039793;28;20045;-85
2021/08/04 02:04:44;;;;;;;5.53;2.70;;;;;;;;;;5045686;28;20053;-85
2021/08/04 02:07:19;;;;;;;5.47;2.60;;;;;;;;;;5046669;28;20053;-85
2021/08/04 02:09:51;;;;;;;4.85;3.00;;;;;;;;;;5046218;28;20053;-85
2021/08/04 02:12:18;;;;;;;5.00;2.55;;;;;;;;;;5046139;28;20069;-85
2021/08/04 02:14:52;;;;;;;5.45;2.80;;;;;;;;;;5045195;28;20076;-85
2021/08/04 02:17:23;;;;;;;4.72;2.88;;;;;;;;;;5045878;28;20080;-84
2021/08/04 02:19:55;;;;;;;6.03;3.40;;;;;;;;;;5045104;28;20084;-85
2021/08/04 02:22:27;;;;;;;6.50;3.45;;;;;;;;;;5044441;28;20099;-85
2021/08/04 02:25:01;;;;;;;6.47;3.58;;;;;;;;;;5038987;28;20088;-85
2021/08/04 02:27:28;;;;;;;7.72;3.47;;;;;;;;;;5038504;28;20049;-85
2021/08/04 02:29:57;;;;;;;5.78;3.30;;;;;;;;;;5038693;28;20057;-85
2021/08/04 02:32:25;;;;;;;6.47;2.97;;;;;;;;;;5036395;28;20058;-84
2021/08/04 02:34:52;;;;;;;6.35;3.33;;;;;;;;;;5033327;28;20065;-84
2021/08/04 02:37:19;;;;;;;5.97;3.67;;;;;;;;;;5033775;28;20433;-84
2021/08/04 02:39:46;;;;;;;7.07;4.22;;;;;;;;;;5033345;28;20045;-85
2021/08/04 02:42:13;;;;;;;8.40;3.88;;;;;;;;;;5036149;28;20053;-84
2021/08/04 02:44:40;;;;;;;7.50;4.45;;;;;;;;;;5036083;28;20047;-84
2021/08/04 02:47:07;;;;;;;7.53;4.32;;;;;;;;;;5037468;28;20107;-84
2021/08/04 02:49:35;;;;;;;6.63;4.00;;;;;;;;;;5040070;28;20076;-85
2021/08/04 02:52:03;;;;;;;5.75;3.60;;;;;;;;;;5046303;28;20088;-85
2021/08/04 02:54:30;;;;;;;6.13;3.65;;;;;;;;;;5045256;28;20057;-85
2021/08/04 02:56:56;;;;;;;4.95;3.17;;;;;;;;;;5045057;28;20434;-84
2021/08/04 02:59:23;;;;;;;6.00;3.50;;;;;;;;;;5039387;28;20502;-85
2021/08/04 03:01:50;;;;;;;6.70;3.55;;;;;;;;;;5036854;28;20445;-85
2021/08/04 03:04:17;;;;;;;6.93;3.80;;;;;;;;;;5033776;28;20087;-85
2021/08/04 03:06:45;;;;;;;7.10;3.58;;;;;;;;;;5033186;28;20057;-85
2021/08/04 03:09:12;;;;;;;8.55;4.38;;;;;;;;;;5036568;28;20100;-84
2021/08/04 03:11:39;;;;;;;8.18;4.18;;;;;;;;;;5045199;28;20076;-84
2021/08/04 03:14:06;;;;;;;8.10;3.92;;;;;;;;;;5044723;28;20045;-84
2021/08/04 03:16:33;;;;;;;5.95;3.50;;;;;;;;;;5043442;28;20045;-85
2021/08/04 03:18:59;;;;;;;6.72;3.90;;;;;;;;;;5044721;28;20115;-84
2021/08/04 03:21:26;;;;;;;6.18;3.65;;;;;;;;;;5046173;28;20046;-83
2021/08/04 03:23:54;;;;;;;5.93;3.38;;;;;;;;;;5043516;28;20045;-83
2021/08/04 03:26:21;;;;;;;5.47;3.72;;;;;;;;;;5043344;28;20111;-83
2021/08/04 03:28:49;;;;;;;6.68;3.70;;;;;;;;;;5042621;28;20414;-84
2021/08/04 03:31:16;;;;;;;6.97;3.75;;;;;;;;;;5048863;28;20057;-84
2021/08/04 03:33:42;;;;;;;6.80;3.60;;;;;;;;;;5055485;28;20490;-84
2021/08/04 03:36:09;;;;;;;6.85;3.92;;;;;;;;;;5050133;28;20041;-84
2021/08/04 03:38:36;;;;;;;7.53;3.60;;;;;;;;;;5045470;28;20060;-84
2021/08/04 03:41:04;;;;;;;5.53;3.65;;;;;;;;;;5047432;28;20042;-84
2021/08/04 03:43:31;;;;;;;7.13;4.20;;;;;;;;;;5054369;28;20053;-84
2021/08/04 03:45:58;;;;;;;6.47;3.72;;;;;;;;;;5055698;28;20072;-84
2021/08/04 03:48:25;;;;;;;6.38;3.45;;;;;;;;;;5048917;28;20049;-84
2021/08/04 03:50:55;;;;;;;7.32;3.88;;;;;;;;;;5045683;28;20061;-85
2021/08/04 03:53:21;;;;;;;6.63;3.75;;;;;;;;;;5044550;28;20049;-84
2021/08/04 03:55:50;;;;;;;7.20;4.30;;;;;;;;;;5044055;28;20053;-84
2021/08/04 03:58:18;;;;;;;7.32;4.47;;;;;;;;;;5046895;28;20053;-85
2021/08/04 04:00:45;;;;;;;6.85;4.13;;;;;;;;;;5048970;28;20045;-84
2021/08/04 04:03:16;;;;;;;6.50;3.70;;;;;;;;;;5052423;28;20113;-83
2021/08/04 04:05:44;;;;;;;7.13;3.95;;;;;;;;;;5046992;28;20072;-83
2021/08/04 04:08:11;;;;;;;6.00;3.50;;;;;;;;;;5042519;28;20565;-85
2021/08/04 04:10:38;;;;;;;6.20;3.42;;;;;;;;;;5041027;28;20049;-83
2021/08/04 04:13:05;;;;;;;7.72;4.10;;;;;;;;;;5042419;28;20049;-86
2021/08/04 04:15:33;;;;;;;8.02;4.40;;;;;;;;;;5042850;28;20054;-84
2021/08/04 04:18:00;;;;;;;7.97;4.07;;;;;;;;;;5044999;28;20049;-84
2021/08/04 04:20:27;;;;;;;5.32;3.17;;;;;;;;;;5046354;28;20045;-84
2021/08/04 04:22:53;;;;;;;6.82;3.80;;;;;;;;;;5046982;28;20067;-84
2021/08/04 04:25:21;;;;;;;6.30;3.65;;;;;;;;;;5041633;28;20058;-85
2021/08/04 04:27:48;;;;;;;7.03;4.18;;;;;;;;;;5045389;28;20052;-85
2021/08/04 04:30:15;;;;;;;6.82;3.60;;;;;;;;;;5045518;28;20056;-82
2021/08/04 04:32:43;;;;;;;5.82;3.15;;;;;;;;;;5046293;28;20053;-84
2021/08/04 04:35:10;;;;;;;5.38;2.78;;;;;;;;;;5046119;28;20099;-84
2021/08/04 04:37:37;;;;;;;5.00;2.60;;;;;;;;;;5045391;28;20095;-83
2021/08/04 04:40:05;;;;;;;6.28;3.10;;;;;;;;;;5046078;28;20054;-86
2021/08/04 04:42:31;;;;;;;4.60;2.53;;;;;;;;;;5043324;28;20103;-82
2021/08/04 04:44:58;;;;;;;6.05;2.90;;;;;;;;;;5046363;28;20068;-84
2021/08/04 04:47:25;;;;;;;5.53;3.35;;;;;;;;;;5048184;28;20049;-84
2021/08/04 04:49:53;;;;;;;5.35;2.95;;;;;;;;;;5051649;28;20131;-84
2021/08/04 04:52:20;;;;;;;5.78;2.88;;;;;;;;;;5052295;28;20049;-83
2021/08/04 04:54:46;;;;;;;4.60;2.53;;;;;;;;;;5050240;28;20049;-84
2021/08/04 04:57:13;;;;;;;6.65;3.25;;;;;;;;;;5050294;28;20045;-84
2021/08/04 04:59:40;;;;;;;4.93;2.67;;;;;;;;;;5051521;28;20068;-85
2021/08/04 05:02:07;;;;;;;5.50;3.05;;;;;;;;;;5054975;28;20065;-84
2021/08/04 05:04:33;;;;;;;5.43;2.65;;;;;;;;;;5061415;28;20053;-84
2021/08/04 05:07:01;;;;;;;5.30;2.88;;;;;;;;;;5061187;28;20029;-85
2021/08/04 05:09:28;;;;;;;5.65;2.75;;;;;;;;;;5060842;28;20036;-86
2021/08/04 05:11:55;;;;;;;4.97;2.85;;;;;;;;;;5060518;28;20073;-84
2021/08/04 05:14:22;;;;;;;6.18;3.22;;;;;;;;;;5059367;28;20037;-84
2021/08/04 05:16:49;;;;;;;4.75;2.67;;;;;;;;;;5058491;28;20051;-83
2021/08/04 05:19:16;;;;;;;5.13;2.83;;;;;;;;;;5051206;28;20430;-83
2021/08/04 05:21:43;;;;;;;5.85;2.95;;;;;;;;;;5053844;28;20053;-84
2021/08/04 05:24:11;;;;;;;5.55;2.50;;;;;;;;;;5050110;28;20053;-84
2021/08/04 05:26:38;;;;;;;5.68;2.92;;;;;;;;;;5043197;28;20042;-84
2021/08/04 05:29:05;;;;;;;4.57;2.65;;;;;;;;;;5042667;28;20060;-84
2021/08/04 05:31:32;;;;;;;5.40;2.58;;;;;;;;;;5047146;28;20092;-84
2021/08/04 05:33:59;;;;;;;6.30;2.92;;;;;;;;;;5047285;28;20080;-85
2021/08/04 05:36:25;;;;;;;6.05;3.00;;;;;;;;;;5047316;28;20057;-85
2021/08/04 05:38:53;;;;;;;5.38;2.70;;;;;;;;;;5048782;28;20461;-85
2021/08/04 05:41:22;;;;;;;4.80;2.63;;;;;;;;;;5038598;28;20152;-85
2021/08/04 05:43:49;;;;;;;4.95;2.38;;;;;;;;;;5037649;28;20491;-85
2021/08/04 05:46:15;;;;;;;5.07;2.80;;;;;;;;;;5035487;28;20391;-85
2021/08/04 05:48:42;;;;;;;5.75;2.47;;;;;;;;;;5035958;28;20518;-85
2021/08/04 05:51:09;;;;;;;5.30;2.70;;;;;;;;;;5037067;28;20049;-84
2021/08/04 05:53:36;;;;;;;7.47;3.20;;;;;;;;;;5037327;28;20060;-84
2021/08/04 05:56:03;;;;;;;10.82;3.15;;;;;;;;;;5037512;28;20068;-84
2021/08/04 05:58:31;;;;;;;6.38;2.83;;;;;;;;;;5037195;28;20126;-84
2021/08/04 06:00:58;;;;;;;6.70;2.70;;;;;;;;;;5038510;28;20046;-84
2021/08/04 06:03:25;;;;;;;7.05;2.80;;;;;;;;;;5037987;28;20046;-84
2021/08/04 06:05:51;;;;;;;6.95;3.00;;;;;;;;;;5037654;28;20103;-84
2021/08/04 06:08:18;;;;;;;4.88;2.25;;;;;;;;;;5037766;28;20099;-84
2021/08/04 06:10:45;;;;;;;5.60;2.58;;;;;;;;;;5038609;28;20076;-85
2021/08/04 06:13:12;;;;;;;5.55;2.83;;;;;;;;;;5039064;28;20061;-85
2021/08/04 06:15:40;;;;;;;4.93;1.85;;;;;;;;;;5036756;28;20041;-84
2021/08/04 06:18:07;;;;;;;7.43;2.85;;;;;;;;;;5037895;28;20103;-84
2021/08/04 06:20:34;;;;;;;5.85;2.15;;;;;;;;;;5037291;28;20049;-84
2021/08/04 06:23:00;;;;;;;7.68;4.60;;;;;;;;;;5036756;28;20095;-84
2021/08/04 06:25:27;;;;;;;5.05;2.50;;;;;;;;;;5036123;28;20042;-84
2021/08/04 06:27:54;;;;;;;3.88;2.17;;;;;;;;;;5036640;28;20057;-85
2021/08/04 06:30:22;;;;;;;3.92;2.55;;;;;;;;;;5037465;28;20049;-84
2021/08/04 06:32:50;;;;;;;3.63;2.05;;;;;;;;;;5037228;28;20064;-83
2021/08/04 06:35:17;;;;;;;4.28;2.00;;;;;;;;;;5033478;28;20045;-84
2021/08/04 06:37:44;;;;;;;5.10;2.10;;;;;;;;;;5035084;28;20056;-84
2021/08/04 06:40:12;;;;;;;4.50;2.42;;;;;;;;;;5034984;28;20463;-83
2021/08/04 06:42:39;;;;;;;4.38;2.25;;;;;;;;;;5035319;28;20049;-83
2021/08/04 06:45:07;;;;;;;5.47;2.15;;;;;;;;;;5033914;28;20556;-83
2021/08/04 06:47:34;;;;;;;4.15;2.30;;;;;;;;;;5034895;28;20049;-83
2021/08/04 06:50:03;;;;;;;4.90;2.13;;;;;;;;;;5035319;28;20103;-83
2021/08/04 06:52:30;;;;;;;5.05;2.20;;;;;;;;;;5035707;28;20053;-83
2021/08/04 06:54:56;;;;;;;4.72;2.08;;;;;;;;;;5035241;28;20046;-84
2021/08/04 06:57:23;;;;;;;5.13;2.35;;;;;;;;;;5036252;28;20045;-83
2021/08/04 06:59:50;;;;;;;5.25;2.10;;;;;;;;;;5036410;28;20045;-83
2021/08/04 07:02:17;;;;;;;5.20;2.17;;;;;;;;;;5030572;28;20052;-83
2021/08/04 07:04:44;;;;;;;4.07;2.00;;;;;;;;;;5033148;28;20096;-83
2021/08/04 07:07:15;;;;;;;3.17;1.70;;;;;;;;;;5033648;28;20053;-84
2021/08/04 07:09:42;;;;;;;3.45;1.50;;;;;;;;;;5035282;28;20053;-84
2021/08/04 07:12:10;;;;;;;3.72;1.75;;;;;;;;;;5034195;28;20045;-84
2021/08/04 07:14:37;;;;;;;5.10;1.92;;;;;;;;;;5039095;28;20041;-88
2021/08/04 07:17:05;;;;;;;4.22;1.90;;;;;;;;;;5057670;28;20053;-87
2021/08/04 07:19:32;;;;;;;4.68;2.30;;;;;;;;;;5057657;28;20046;-86
2021/08/04 07:21:59;;;;;;;3.75;1.80;;;;;;;;;;5057479;28;20064;-85
2021/08/04 07:24:27;;;;;;;5.13;2.03;;;;;;;;;;5057735;28;20029;-87
2021/08/04 07:26:54;;;;;;;4.05;1.83;;;;;;;;;;5055382;28;20071;-85
2021/08/04 07:29:21;;;;;;;3.80;2.00;;;;;;;;;;5040494;28;20568;-81
2021/08/04 07:31:48;;;;;;;2.63;1.48;;;;;;;;;;5032945;28;20059;-83
2021/08/04 07:34:17;;;;;;;2.72;1.52;;;;;;;;;;5031969;28;20148;-82
2021/08/04 07:36:44;;;;;;;3.28;1.65;;;;;;;;;;5032085;28;20056;-85
2021/08/04 07:39:11;;;;;;;3.33;1.60;;;;;;;;;;5032400;28;20556;-83
2021/08/04 07:41:39;;;;;;;4.57;1.83;;;;;;;;;;5031534;28;20438;-82
2021/08/04 07:44:06;;;;;;;2.95;1.50;;;;;;;;;;5034169;28;20071;-84
2021/08/04 07:46:33;;;;;;;3.58;1.67;;;;;;;;;;5032311;28;20049;-83
2021/08/04 07:49:00;;;;;;;3.17;1.60;;;;;;;;;;5033013;28;20054;-83
2021/08/04 07:51:28;;;;;;;4.40;2.15;;;;;;;;;;5033783;28;20057;-83
2021/08/04 07:53:54;;;;;;;5.20;1.88;;;;;;;;;;5034873;28;20072;-84
2021/08/04 07:56:23;;;;;;;5.43;1.63;;;;;;;;;;5034966;28;20057;-83
2021/08/04 07:58:51;;;;;;;4.05;1.80;;;;;;;;;;5035563;28;20049;-84
2021/08/04 08:01:18;;;;;;;3.17;1.50;;;;;;;;;;5033957;28;20046;-83
2021/08/04 08:03:46;;;;;;;4.10;1.45;;;;;;;;;;5052306;22;20110;-78
2021/08/04 08:06:13;;;;;;;3.30;1.35;;;;;;;;;;5052318;28;20052;-80
2021/08/04 08:08:40;;;;;;;3.40;1.35;;;;;;;;;;5052830;28;20052;-79
2021/08/04 08:11:06;;;;;;;3.67;1.40;;;;;;;;;;5052348;28;20490;-79
2021/08/04 08:13:33;;;;;;;3.50;1.63;;;;;;;;;;5053042;28;20106;-80
2021/08/04 08:16:01;;;;;;;5.75;1.70;;;;;;;;;;5056464;28;20625;-79
2021/08/04 08:18:28;;;;;;;3.15;1.50;;;;;;;;;;5056467;28;20474;-79
2021/08/04 08:20:55;;;;;;;2.63;1.23;;;;;;;;;;5054117;28;20469;-81
2021/08/04 08:23:22;;;;;;;3.10;1.55;;;;;;;;;;5054266;28;20048;-81
2021/08/04 08:25:49;;;;;;;3.95;1.80;;;;;;;;;;5053725;28;20049;-78
2021/08/04 08:28:16;;;;;;;6.72;3.22;;;;;;;;;;5054428;28;20128;-82
2021/08/04 08:30:44;;;;;;;5.60;3.15;;;;;;;;;;5055024;28;20140;-80
2021/08/04 08:33:12;;;;;;;5.72;2.35;;;;;;;;;;5053830;28;20045;-79
2021/08/04 08:35:40;;;;;;;5.80;2.20;;;;;;;;;;5053421;28;20048;-80
2021/08/04 08:38:06;;;;;;;4.20;1.63;;;;;;;;;;5054260;28;20049;-81
2021/08/04 08:40:33;;;;;;;4.28;1.90;;;;;;;;;;5055525;28;20056;-80
2021/08/04 08:43:01;;;;;;;3.97;1.60;;;;;;;;;;5056553;28;20045;-80
2021/08/04 08:45:28;;;;;;;2.65;1.25;;;;;;;;;;5055639;28;20103;-80
2021/08/04 08:47:56;;;;;;;2.95;1.23;;;;;;;;;;5056039;28;20490;-79
2021/08/04 08:50:26;;;;;;;4.60;1.42;;;;;;;;;;5057484;28;20049;-79
2021/08/04 08:52:53;;;;;;;3.22;1.40;;;;;;;;;;5055831;28;20086;-80
2021/08/04 08:55:21;;;;;;;3.20;1.40;;;;;;;;;;5055931;28;20127;-80
2021/08/04 08:57:48;;;;;;;2.88;1.20;;;;;;;;;;5068520;28;20045;-80
2021/08/04 09:00:16;;;;;;;2.90;1.30;;;;;;;;;;5059600;28;20045;-80
2021/08/04 09:02:44;;;;;;;3.05;1.17;;;;;;;;;;5058927;28;20186;-80
2021/08/04 09:05:12;;;;;;;3.72;1.40;;;;;;;;;;5057203;28;20406;-81
2021/08/04 09:07:43;;;;;;;2.78;1.33;;;;;;;;;;5055659;28;20041;-80
2021/08/04 09:10:25;;;;;;;3.72;1.20;;;;;;;;;;5055821;28;20049;-81
2021/08/04 09:12:53;;;;;;;3.03;1.40;;;;;;;;;;5055914;28;20084;-80
2021/08/04 09:15:29;;;;;;;2.45;1.30;;;;;;;;;;5056331;28;20060;-81
2021/08/04 09:18:01;;;;;;;3.88;2.08;;;;;;;;;;5056776;28;20049;-80
2021/08/04 09:20:28;;;;;;;2.45;1.25;;;;;;;;;;5057068;28;20045;-80
2021/08/04 09:23:01;;;;;;;2.97;1.80;;;;;;;;;;5059238;28;20041;-81
2021/08/04 09:25:29;;;;;;;4.03;2.45;;;;;;;;;;5056972;28;20055;-80
2021/08/04 09:27:58;;;;;;;4.03;2.42;;;;;;;;;;5056437;28;20453;-82
2021/08/04 09:30:29;;;;;;;3.42;1.50;;;;;;;;;;5058205;28;20471;-80
2021/08/04 09:33:36;;;;;;;5.10;2.60;;;;;;;;;;5057285;28;20169;-80
2021/08/04 09:36:03;;;;;;;4.00;1.85;;;;;;;;;;5055848;28;20048;-81
2021/08/04 09:38:32;;;;;;;4.78;1.98;;;;;;;;;;5056360;28;20061;-81
2021/08/04 09:41:11;;;;;;;4.03;1.98;;;;;;;;;;5055986;28;20048;-80
2021/08/04 09:43:39;;;;;;;3.58;1.90;;;;;;;;;;5055768;28;20120;-80
2021/08/04 09:46:06;;;;;;;6.68;4.00;;;;;;;;;;5055926;28;20106;-81
2021/08/04 09:48:32;;;;;;;3.72;1.98;;;;;;;;;;5059231;28;20071;-81
2021/08/04 09:51:01;;;;;;;6.85;1.58;;;;;;;;;;5057876;28;20045;-82
2021/08/04 09:53:34;;;;;;;3.35;1.45;;;;;;;;;;5057286;28;20126;-80
2021/08/04 09:56:24;;;;;;;3.97;2.10;;;;;;;;;;5054179;28;20108;-81
2021/08/04 09:58:53;;;;;;;5.57;3.88;;;;;;;;;;5025487;28;20049;-80
2021/08/04 10:01:22;;;;;;;6.18;4.90;;;;;;;;;;5057616;28;20056;-82
2021/08/04 10:04:14;;;;;;;3.35;1.80;;;;;;;;;;5057534;28;20041;-80
2021/08/04 10:07:00;;;;;;;;;;;;;;;;;;;;;
2021/08/04 10:09:50;;;;;;;4.78;2.38;;;;;;;;;;5041238;28;20124;-81
2021/08/04 10:12:17;;;;;;;3.28;1.40;;;;;;;;;;5050820;28;20049;-81
2021/08/04 10:14:44;;;;;;;3.17;1.35;;;;;;;;;;5053547;28;20132;-79
2021/08/04 10:17:11;;;;;;;2.85;1.40;;;;;;;;;;5055832;28;20099;-80
2021/08/04 10:19:38;;;;;;;3.97;2.10;;;;;;;;;;5056434;28;20048;-81
2021/08/04 10:22:05;;;;;;;3.92;2.08;;;;;;;;;;5054158;28;20095;-81
2021/08/04 10:24:33;;;;;;;3.47;2.05;;;;;;;;;;5057899;28;20041;-81
2021/08/04 10:27:02;;;;;;;6.13;2.80;;;;;;;;;;5057671;28;20052;-80
2021/08/04 10:29:30;;;;;;;4.28;2.05;;;;;;;;;;5056480;28;20603;-80
2021/08/04 10:31:59;;;;;;;5.25;2.50;;;;;;;;;;5055263;28;20049;-81
2021/08/04 10:34:35;;;;;;;4.80;2.25;;;;;;;;;;5084872;22;20044;-79
2021/08/04 10:37:18;;;;;;;4.65;2.00;;;;;;;;;;5075113;28;20045;-80
2021/08/04 10:39:45;;;;;;;4.80;2.00;;;;;;;;;;5075821;28;20044;-81
2021/08/04 10:42:13;;;;;;;3.55;1.80;;;;;;;;;;5076215;28;20075;-80
2021/08/04 10:44:40;;;;;;;4.82;2.22;;;;;;;;;;5074843;28;20048;-79
2021/08/04 10:47:26;;;;;;;4.78;2.53;;;;;;;;;;5075398;28;20056;-84
2021/08/04 10:50:09;;;;;;;7.45;2.80;;;;;;;;;;5074501;28;20497;-85
2021/08/04 10:52:36;;;;;;;20.38;6.85;;;;;;;;;;5075043;28;20044;-81
2021/08/04 10:55:12;;;;;;;13.68;4.70;;;;;;;;;;5074878;28;20045;-81
2021/08/04 10:58:10;;;;;;;10.18;3.55;;;;;;;;;;5075355;28;20340;-81
2021/08/04 11:00:38;;;;;;;5.20;2.00;;;;;;;;;;5030455;28;20068;-81
2021/08/04 11:03:38;;;;;;;4.50;2.20;;;;;;;;;;5077289;28;20505;-80
2021/08/04 11:06:06;;;;;;;6.70;2.65;;;;;;;;;;5071464;28;20075;-81
2021/08/04 11:08:33;;;;;;;3.60;1.60;;;;;;;;;;5073250;28;20053;-81
2021/08/04 11:11:00;;;;;;;5.30;1.88;;;;;;;;;;5072860;28;20098;-80
2021/08/04 11:13:56;;;;;;;5.68;1.95;;;;;;;;;;5077791;28;20060;-82
2021/08/04 11:16:31;;;;;;;2.63;1.33;;;;;;;;;;5077306;28;20075;-81
2021/08/04 11:19:05;;;;;;;3.88;1.75;;;;;;;;;;5078581;28;20052;-81
2021/08/04 11:21:32;;;;;;;5.22;1.80;;;;;;;;;;5078524;28;20048;-81
2021/08/04 11:24:00;;;;;;;3.05;1.40;;;;;;;;;;5077312;28;20048;-82
2021/08/04 11:26:33;;;;;;;3.33;1.20;;;;;;;;;;5074356;28;20140;-82
2021/08/04 11:29:01;;;;;;;4.07;1.50;;;;;;;;;;5073726;28;20058;-82
2021/08/04 11:31:28;;;;;;;4.75;1.83;;;;;;;;;;5072423;28;20045;-82
2021/08/04 11:34:01;;;;;;;3.22;1.45;;;;;;;;;;5073815;28;20051;-81
2021/08/04 11:36:30;;;;;;;5.90;1.83;;;;;;;;;;5072806;28;20472;-82
2021/08/04 11:39:04;;;;;;;3.97;1.60;;;;;;;;;;5073060;28;20056;-82
2021/08/04 11:41:34;;;;;;;3.95;1.42;;;;;;;;;;5073980;28;20044;-82
2021/08/04 11:44:23;;;;;;;3.05;1.30;;;;;;;;;;5074027;28;20071;-81
2021/08/04 11:46:52;;;;;;;3.65;1.90;;;;;;;;;;5072980;28;20079;-82
2021/08/04 11:49:21;;;;;;;3.88;1.55;;;;;;;;;;5073869;28;20106;-83
2021/08/04 11:51:50;;;;;;;2.45;1.10;;;;;;;;;;5074046;28;20481;-82
2021/08/04 11:54:29;;;;;;;5.05;1.60;;;;;;;;;;5074366;28;20520;-81
2021/08/04 11:56:56;;;;;;;6.75;2.40;;;;;;;;;;5079410;28;20489;-80
2021/08/04 11:59:25;;;;;;;7.85;3.92;;;;;;;;;;5077078;28;20044;-81
2021/08/04 12:02:00;;;;;;;7.18;2.92;;;;;;;;;;5074724;28;20441;-82
2021/08/04 12:04:28;;;;;;;4.70;2.60;;;;;;;;;;5074169;28;20579;-81
2021/08/04 12:07:01;;;;;;;3.60;1.33;;;;;;;;;;5071369;28;20061;-82
2021/08/04 12:09:30;;;;;;;3.22;1.40;;;;;;;;;;5073488;28;20110;-83
2021/08/04 12:11:58;;;;;;;3.15;1.30;;;;;;;;;;5075463;28;20406;-83
2021/08/04 12:14:26;;;;;;;2.47;1.33;;;;;;;;;;5072561;28;20437;-84
2021/08/04 12:16:56;;;;;;;2.38;1.08;;;;;;;;;;5073910;28;20075;-83
2021/08/04 12:19:37;;;;;;;3.13;1.33;;;;;;;;;;5073095;28;20044;-82
2021/08/04 12:22:05;;;;;;;4.28;1.80;;;;;;;;;;5073141;28;20066;-82
2021/08/04 12:24:39;;;;;;;4.90;1.50;;;;;;;;;;5076169;28;20493;-82
2021/08/04 12:27:06;;;;;;;3.70;1.50;;;;;;;;;;5078747;28;20102;-82
2021/08/04 12:29:35;;;;;;;3.70;1.73;;;;;;;;;;5076398;28;20049;-82
2021/08/04 12:32:04;;;;;;;4.97;1.63;;;;;;;;;;5077050;28;20048;-83
2021/08/04 12:34:32;;;;;;;4.70;1.40;;;;;;;;;;5076931;28;20056;-82
2021/08/04 12:37:00;;;;;;;4.32;1.52;;;;;;;;;;5076788;28;20041;-83
2021/08/04 12:39:29;;;;;;;3.58;1.52;;;;;;;;;;5077673;28;20057;-82
2021/08/04 12:41:56;;;;;;;3.85;1.63;;;;;;;;;;5079587;28;20071;-81
2021/08/04 12:44:24;;;;;;;3.42;1.55;;;;;;;;;;5079610;28;20056;-82
2021/08/04 12:46:53;;;;;;;4.97;1.70;;;;;;;;;;5080357;28;20048;-82
2021/08/04 12:49:28;;;;;;;5.78;1.52;;;;;;;;;;5076830;28;20056;-82
2021/08/04 12:51:55;;;;;;;5.38;1.50;;;;;;;;;;5077651;28;20041;-81
2021/08/04 12:54:29;;;;;;;2.58;1.50;;;;;;;;;;5078935;28;20052;-82
2021/08/04 12:56:57;;;;;;;3.30;1.55;;;;;;;;;;5077955;28;20049;-81
2021/08/04 12:59:39;;;;;;;5.10;3.20;;;;;;;;;;5080523;28;20052;-81
2021/08/04 13:02:09;;;;;;;7.85;4.60;;;;;;;;;;5079249;28;20048;-81
2021/08/04 13:04:38;;;;;;;4.13;2.47;;;;;;;;;;5079724;28;20045;-81
2021/08/04 13:07:06;;;;;;;5.72;2.10;;;;;;;;;;5079310;28;20058;-81
2021/08/04 13:09:50;;;;;;;3.47;1.33;;;;;;;;;;5082395;28;20106;-81
2021/08/04 13:12:19;;;;;;;3.40;1.58;;;;;;;;;;5081160;28;20051;-82
2021/08/04 13:15:11;;;;;;;4.90;2.33;;;;;;;;;;5077837;28;20045;-82
2021/08/04 13:17:42;;;;;;;5.00;2.83;;;;;;;;;;5078402;28;20064;-82
2021/08/04 13:20:18;;;;;;;4.13;1.80;;;;;;;;;;5078630;28;20070;-82
2021/08/04 13:22:53;;;;;;;4.82;3.28;;;;;;;;;;5078364;28;20044;-82
2021/08/04 13:25:22;;;;;;;7.72;4.85;;;;;;;;;;5079996;28;20052;-81
2021/08/04 13:27:57;;;;;;;3.65;1.42;;;;;;;;;;5080614;28;20079;-81
2021/08/04 13:30:26;;;;;;;4.95;2.22;;;;;;;;;;5080347;28;20055;-81
2021/08/04 13:32:55;;;;;;;5.93;3.95;;;;;;;;;;5080007;28;20067;-81
2021/08/04 13:35:22;;;;;;;6.85;3.10;;;;;;;;;;5078540;28;20051;-81
2021/08/04 13:37:49;;;;;;;4.45;2.38;;;;;;;;;;5077905;28;20048;-80
2021/08/04 13:40:16;;;;;;;2.97;1.48;;;;;;;;;;5077994;28;20049;-82
2021/08/04 13:42:44;;;;;;;3.80;1.77;;;;;;;;;;5076230;28;20595;-81
2021/08/04 13:45:12;;;;;;;3.67;1.75;;;;;;;;;;5076253;28;20504;-81
2021/08/04 13:47:45;;;;;;;3.60;1.63;;;;;;;;;;5079242;28;20181;-82
2021/08/04 13:50:25;;;;;;;3.00;1.40;;;;;;;;;;5079093;28;20049;-81
2021/08/04 13:52:53;;;;;;;10.50;2.05;;;;;;;;;;5077636;28;20079;-80
2021/08/04 13:55:22;;;;;;;4.22;1.40;;;;;;;;;;5077392;28;20063;-81
2021/08/04 13:57:49;;;;;;;4.97;1.70;;;;;;;;;;5077152;28;20108;-78
2021/08/04 14:00:18;;;;;;;4.38;2.17;;;;;;;;;;5077057;28;20044;-82
2021/08/04 14:02:45;;;;;;;5.55;2.13;;;;;;;;;;5077331;28;20045;-81
2021/08/04 14:05:15;;;;;;;4.75;2.17;;;;;;;;;;5089631;22;20098;-83
2021/08/04 14:07:44;;;;;;;8.82;2.53;;;;;;;;;;5078473;28;20056;-82
2021/08/04 14:10:13;;;;;;;4.80;1.90;;;;;;;;;;5079310;28;20090;-85
2021/08/04 14:12:40;;;;;;;6.07;2.50;;;;;;;;;;5079710;28;20071;-82
2021/08/04 14:15:10;;;;;;;5.15;2.20;;;;;;;;;;5094612;28;20048;-82
2021/08/04 14:17:37;;;;;;;4.13;1.90;;;;;;;;;;5091296;28;20059;-83
2021/08/04 14:20:04;;;;;;;3.53;1.70;;;;;;;;;;5080823;28;20041;-83
2021/08/04 14:22:34;;;;;;;4.68;1.80;;;;;;;;;;5078231;28;20044;-83
2021/08/04 14:25:00;;;;;;;2.83;1.50;;;;;;;;;;5075451;28;20102;-83
2021/08/04 14:27:29;;;;;;;3.42;1.60;;;;;;;;;;5077076;28;20082;-83
2021/08/04 14:29:56;;;;;;;4.35;1.90;;;;;;;;;;5075075;28;20044;-84
2021/08/04 14:32:23;;;;;;;2.85;1.33;;;;;;;;;;5073892;28;20055;-83
2021/08/04 14:34:50;;;;;;;4.03;1.70;;;;;;;;;;5073811;28;20572;-83
2021/08/04 14:37:17;;;;;;;3.67;1.60;;;;;;;;;;5079556;28;20045;-84
2021/08/04 14:39:46;;;;;;;6.10;2.22;;;;;;;;;;5083179;28;20094;-83
2021/08/04 14:42:13;;;;;;;4.30;2.35;;;;;;;;;;5082509;28;20242;-83
2021/08/04 14:44:40;;;;;;;3.70;1.83;;;;;;;;;;5078823;28;20048;-84
2021/08/04 14:47:07;;;;;;;3.95;2.05;;;;;;;;;;5078333;28;20041;-84
2021/08/04 14:49:34;;;;;;;3.50;2.00;;;;;;;;;;5079108;28;20048;-84
2021/08/04 14:52:01;;;;;;;4.35;2.30;;;;;;;;;;5084906;28;20040;-84
2021/08/04 14:54:28;;;;;;;5.93;2.50;;;;;;;;;;5088959;28;20479;-84